Time,TemperatureF,DewpointF,PressureIn,WindDirection,WindDirectionDegrees,WindSpeedMPH,WindSpeedGustMPH,Humidity,HourlyPrecipIn,Conditions,Clouds,dailyrainin,SoftwareType,DateUTC
2013-02-06 00:05:00,44.3,42.0,29.89,SSW,205,6.0,16.0,92,0.00,,,0.00,weatherlink.com 1.10,2013-02-06 08:05:00,
2013-02-06 00:20:00,44.3,42.0,29.89,SSE,153,10.0,13.0,92,0.00,,,0.00,weatherlink.com 1.10,2013-02-06 08:20:00,
2013-02-06 00:35:00,44.0,42.0,29.90,SSE,167,7.0,17.0,92,0.00,,,0.00,weatherlink.com 1.10,2013-02-06 08:35:00,
2013-02-06 00:50:00,43.9,42.0,29.91,South,186,11.0,12.0,92,0.00,,,0.00,weatherlink.com 1.10,2013-02-06 08:50:00,
2013-02-06 01:05:00,43.7,42.0,29.91,SSW,211,8.0,13.0,92,0.00,,,0.00,weatherlink.com 1.10,2013-02-06 09:05:00,
2013-02-06 01:21:00,43.3,41.0,29.92,SSE,165,2.0,10.0,92,0.00,,,0.00,weatherlink.com 1.10,2013-02-06 09:21:00,
2013-02-06 01:36:00,43.1,41.0,29.93,SSE,168,6.0,16.0,92,0.00,,,0.00,weatherlink.com 1.10,2013-02-06 09:36:00,
2013-02-06 01:51:00,43.2,41.0,29.93,SSE,165,9.0,11.0,93,0.00,,,0.00,weatherlink.com 1.10,2013-02-06 09:51:00,
2013-02-06 02:06:00,43.5,42.0,29.93,SSE,168,4.0,10.0,93,0.00,,,0.00,weatherlink.com 1.10,2013-02-06 10:06:00,
2013-02-06 02:21:00,43.6,42.0,29.93,South,170,6.0,18.0,93,0.00,,,0.00,weatherlink.com 1.10,2013-02-06 10:21:00,
2013-02-06 02:36:00,43.7,42.0,29.93,SSE,160,7.0,9.0,92,0.00,,,0.00,weatherlink.com 1.10,2013-02-06 10:36:00,
2013-02-06 02:51:00,43.7,42.0,29.93,SSW,203,6.0,16.0,93,0.00,,,0.00,weatherlink.com 1.10,2013-02-06 10:51:00,
2013-02-06 03:06:00,43.5,41.0,29.94,SSW,207,3.0,14.0,91,0.00,,,0.00,weatherlink.com 1.10,2013-02-06 11:06:00,
2013-02-06 03:21:00,43.3,41.0,29.94,South,183,8.0,13.0,92,0.00,,,0.00,weatherlink.com 1.10,2013-02-06 11:21:00,
2013-02-06 03:36:00,43.3,41.0,29.95,SSE,168,2.0,9.0,92,0.00,,,0.00,weatherlink.com 1.10,2013-02-06 11:36:00,
2013-02-06 03:51:00,43.2,41.0,29.95,West,273,3.0,11.0,92,0.00,,,0.00,weatherlink.com 1.10,2013-02-06 11:51:00,
2013-02-06 04:06:00,43.3,41.0,29.95,West,269,2.0,10.0,92,0.00,,,0.00,weatherlink.com 1.10,2013-02-06 12:06:00,
2013-02-06 04:21:00,43.2,41.0,29.96,SSE,156,6.0,9.0,93,0.00,,,0.00,weatherlink.com 1.10,2013-02-06 12:21:00,
2013-02-06 04:36:00,43.5,41.0,29.96,SW,232,5.0,14.0,92,0.00,,,0.00,weatherlink.com 1.10,2013-02-06 12:36:00,
2013-02-06 04:51:00,43.7,42.0,29.97,SSE,158,8.0,14.0,92,0.00,,,0.00,weatherlink.com 1.10,2013-02-06 12:51:00,
2013-02-06 05:06:00,43.8,42.0,29.96,South,186,6.0,10.0,92,0.00,,,0.00,weatherlink.com 1.10,2013-02-06 13:06:00,
2013-02-06 05:21:00,43.8,42.0,29.97,SSW,201,10.0,13.0,92,0.00,,,0.00,weatherlink.com 1.10,2013-02-06 13:21:00,
2013-02-06 05:36:00,43.9,42.0,29.97,South,180,9.0,14.0,92,0.00,,,0.00,weatherlink.com 1.10,2013-02-06 13:36:00,
2013-02-06 05:51:00,43.7,42.0,29.97,South,169,11.0,14.0,93,0.00,,,0.00,weatherlink.com 1.10,2013-02-06 13:51:00,
2013-02-06 06:06:00,43.8,42.0,29.97,South,179,12.0,15.0,92,0.00,,,0.00,weatherlink.com 1.10,2013-02-06 14:06:00,
2013-02-06 06:21:00,44.0,42.0,29.98,SSE,168,10.0,14.0,93,0.00,,,0.00,weatherlink.com 1.10,2013-02-06 14:21:00,
2013-02-06 06:36:00,43.9,42.0,29.98,South,184,9.0,17.0,92,0.00,,,0.00,weatherlink.com 1.10,2013-02-06 14:36:00,
2013-02-06 06:51:00,43.8,42.0,29.98,SSE,168,9.0,14.0,92,0.00,,,0.00,weatherlink.com 1.10,2013-02-06 14:51:00,
2013-02-06 07:06:00,43.6,41.0,29.98,SSE,160,11.0,21.0,91,0.00,,,0.00,weatherlink.com 1.10,2013-02-06 15:06:00,
2013-02-06 07:21:00,43.5,41.0,29.99,South,191,4.0,13.0,92,0.00,,,0.00,weatherlink.com 1.10,2013-02-06 15:21:00,
2013-02-06 07:36:00,43.5,41.0,29.99,South,175,3.0,14.0,92,0.00,,,0.00,weatherlink.com 1.10,2013-02-06 15:36:00,
2013-02-06 07:51:00,43.7,41.0,29.99,SSE,153,9.0,17.0,91,0.00,,,0.00,weatherlink.com 1.10,2013-02-06 15:51:00,
2013-02-06 08:06:00,43.9,41.0,30.00,SW,233,10.0,23.0,90,0.00,,,0.00,weatherlink.com 1.10,2013-02-06 16:06:00,
2013-02-06 08:21:00,43.3,41.0,30.01,South,180,12.0,18.0,92,0.02,,,0.02,weatherlink.com 1.10,2013-02-06 16:21:00,
2013-02-06 08:36:00,42.9,41.0,30.01,SE,142,8.0,15.0,93,0.03,,,0.03,weatherlink.com 1.10,2013-02-06 16:36:00,
2013-02-06 08:52:00,42.4,41.0,30.01,SSW,210,6.0,13.0,93,0.04,,,0.04,weatherlink.com 1.10,2013-02-06 16:52:00,
2013-02-06 09:07:00,42.3,41.0,30.01,South,191,7.0,10.0,94,0.05,,,0.05,weatherlink.com 1.10,2013-02-06 17:07:00,
2013-02-06 09:37:00,42.7,41.0,30.01,South,176,7.0,9.0,95,0.01,,,0.05,weatherlink.com 1.10,2013-02-06 17:37:00,
2013-02-06 09:52:00,43.3,42.0,30.00,South,179,4.0,7.0,95,0.01,,,0.05,weatherlink.com 1.10,2013-02-06 17:52:00,
2013-02-06 10:07:00,43.9,42.0,30.00,SSE,155,6.0,10.0,94,0.00,,,0.05,weatherlink.com 1.10,2013-02-06 18:07:00,
2013-02-06 10:22:00,44.3,42.0,30.00,SSE,152,4.0,9.0,93,0.00,,,0.05,weatherlink.com 1.10,2013-02-06 18:22:00,
2013-02-06 10:37:00,44.7,43.0,29.99,SSE,159,9.0,13.0,93,0.00,,,0.05,weatherlink.com 1.10,2013-02-06 18:37:00,
2013-02-06 10:52:00,45.1,43.0,29.99,SSE,160,8.0,12.0,92,0.00,,,0.05,weatherlink.com 1.10,2013-02-06 18:52:00,
2013-02-06 11:07:00,45.6,43.0,29.99,South,176,7.0,10.0,91,0.00,,,0.05,weatherlink.com 1.10,2013-02-06 19:07:00,
2013-02-06 11:22:00,46.2,44.0,29.99,SSW,200,6.0,16.0,90,0.00,,,0.05,weatherlink.com 1.10,2013-02-06 19:22:00,
2013-02-06 11:37:00,46.4,43.0,29.99,South,180,11.0,13.0,89,0.00,,,0.05,weatherlink.com 1.10,2013-02-06 19:37:00,
2013-02-06 11:52:00,46.5,44.0,29.98,SSW,208,6.0,11.0,90,0.00,,,0.05,weatherlink.com 1.10,2013-02-06 19:52:00,
2013-02-06 12:07:00,46.3,44.0,29.97,South,180,5.0,15.0,90,0.00,,,0.05,weatherlink.com 1.10,2013-02-06 20:07:00,
2013-02-06 12:22:00,46.4,44.0,29.97,South,172,7.0,12.0,90,0.00,,,0.05,weatherlink.com 1.10,2013-02-06 20:22:00,
2013-02-06 12:37:00,46.5,44.0,29.96,SSW,203,9.0,13.0,89,0.00,,,0.05,weatherlink.com 1.10,2013-02-06 20:37:00,
2013-02-06 12:52:00,46.6,44.0,29.96,South,188,6.0,11.0,89,0.00,,,0.05,weatherlink.com 1.10,2013-02-06 20:52:00,
2013-02-06 13:07:00,46.7,43.0,29.95,SE,145,7.0,12.0,88,0.00,,,0.05,weatherlink.com 1.10,2013-02-06 21:07:00,
2013-02-06 13:22:00,47.0,43.0,29.95,SSE,162,5.0,12.0,87,0.00,,,0.05,weatherlink.com 1.10,2013-02-06 21:22:00,
2013-02-06 13:37:00,47.2,43.0,29.94,South,181,8.0,14.0,86,0.00,,,0.05,weatherlink.com 1.10,2013-02-06 21:37:00,
2013-02-06 13:52:00,47.7,43.0,29.94,South,191,7.0,17.0,84,0.00,,,0.05,weatherlink.com 1.10,2013-02-06 21:52:00,
2013-02-06 14:07:00,47.9,43.0,29.93,South,174,13.0,21.0,83,0.00,,,0.05,weatherlink.com 1.10,2013-02-06 22:07:00,
2013-02-06 14:22:00,47.2,43.0,29.93,SSW,208,2.0,15.0,86,0.01,,,0.06,weatherlink.com 1.10,2013-02-06 22:22:00,
2013-02-06 14:37:00,46.6,44.0,29.93,SSW,211,6.0,12.0,89,0.01,,,0.06,weatherlink.com 1.10,2013-02-06 22:37:00,
2013-02-06 14:52:00,46.4,44.0,29.93,SSE,159,4.0,8.0,90,0.01,,,0.06,weatherlink.com 1.10,2013-02-06 22:52:00,
2013-02-06 15:07:00,46.4,44.0,29.92,South,176,9.0,12.0,90,0.02,,,0.07,weatherlink.com 1.10,2013-02-06 23:07:00,
2013-02-06 15:22:00,46.3,43.0,29.92,SSE,155,5.0,11.0,89,0.02,,,0.08,weatherlink.com 1.10,2013-02-06 23:22:00,
2013-02-06 15:37:00,46.2,43.0,29.92,SSE,147,9.0,13.0,89,0.02,,,0.08,weatherlink.com 1.10,2013-02-06 23:37:00,
2013-02-06 15:52:00,46.0,43.0,29.91,SSE,167,6.0,10.0,90,0.02,,,0.08,weatherlink.com 1.10,2013-02-06 23:52:00,
2013-02-06 16:07:00,45.7,43.0,29.91,ESE,123,8.0,8.0,91,0.02,,,0.09,weatherlink.com 1.10,2013-02-07 00:07:00,
2013-02-06 16:22:00,45.3,43.0,29.91,SSE,159,8.0,10.0,93,0.03,,,0.11,weatherlink.com 1.10,2013-02-07 00:22:00,
2013-02-06 16:37:00,45.3,44.0,29.91,SE,145,5.0,8.0,94,0.04,,,0.12,weatherlink.com 1.10,2013-02-07 00:37:00,
2013-02-06 16:52:00,45.2,44.0,29.90,SSE,151,5.0,7.0,94,0.04,,,0.12,weatherlink.com 1.10,2013-02-07 00:52:00,
2013-02-06 17:07:00,45.1,44.0,29.89,SE,143,5.0,7.0,95,0.04,,,0.13,weatherlink.com 1.10,2013-02-07 01:07:00,
2013-02-06 17:22:00,45.0,44.0,29.89,SSE,149,6.0,8.0,95,0.03,,,0.14,weatherlink.com 1.10,2013-02-07 01:22:00,
2013-02-06 17:37:00,44.9,44.0,29.88,South,191,3.0,6.0,95,0.03,,,0.15,weatherlink.com 1.10,2013-02-07 01:37:00,
2013-02-06 17:52:00,44.9,44.0,29.87,SSE,153,6.0,9.0,95,0.03,,,0.15,weatherlink.com 1.10,2013-02-07 01:52:00,
2013-02-06 18:07:00,45.0,43.0,29.87,SSW,211,3.0,8.0,94,0.02,,,0.15,weatherlink.com 1.10,2013-02-07 02:07:00,
2013-02-06 18:22:00,44.9,44.0,29.86,SW,215,3.0,7.0,95,0.01,,,0.15,weatherlink.com 1.10,2013-02-07 02:22:00,
2013-02-06 18:37:00,44.9,44.0,29.86,SE,139,5.0,10.0,95,0.02,,,0.17,weatherlink.com 1.10,2013-02-07 02:37:00,
2013-02-06 18:52:00,45.1,44.0,29.84,SSE,152,6.0,11.0,94,0.02,,,0.17,weatherlink.com 1.10,2013-02-07 02:52:00,
2013-02-06 19:07:00,45.1,44.0,29.84,SSE,155,7.0,13.0,94,0.03,,,0.18,weatherlink.com 1.10,2013-02-07 03:07:00,
2013-02-06 19:22:00,45.0,43.0,29.83,SW,215,4.0,7.0,94,0.03,,,0.18,weatherlink.com 1.10,2013-02-07 03:22:00,
2013-02-06 19:37:00,44.5,43.0,29.82,SSE,166,5.0,6.0,95,0.01,,,0.18,weatherlink.com 1.10,2013-02-07 03:37:00,
2013-02-06 19:53:00,44.6,43.0,29.82,South,171,6.0,11.0,94,0.01,,,0.18,weatherlink.com 1.10,2013-02-07 03:53:00,
2013-02-06 20:08:00,44.6,43.0,29.81,SSE,166,6.0,8.0,94,0.00,,,0.18,weatherlink.com 1.10,2013-02-07 04:08:00,
2013-02-06 20:23:00,44.3,43.0,29.81,South,181,3.0,4.0,95,0.00,,,0.18,weatherlink.com 1.10,2013-02-07 04:23:00,
2013-02-06 20:38:00,44.5,43.0,29.80,South,184,3.0,7.0,95,0.00,,,0.18,weatherlink.com 1.10,2013-02-07 04:38:00,
2013-02-06 20:53:00,44.1,43.0,29.80,SW,233,2.0,4.0,96,0.00,,,0.18,weatherlink.com 1.10,2013-02-07 04:53:00,
2013-02-06 21:08:00,44.3,43.0,29.79,WSW,250,1.0,7.0,95,0.00,,,0.18,weatherlink.com 1.10,2013-02-07 05:08:00,
2013-02-06 21:23:00,44.0,43.0,29.78,WSW,245,1.0,3.0,95,0.00,,,0.18,weatherlink.com 1.10,2013-02-07 05:23:00,
2013-02-06 21:38:00,43.6,43.0,29.78,West,278,2.0,3.0,96,0.00,,,0.18,weatherlink.com 1.10,2013-02-07 05:38:00,
2013-02-06 21:53:00,43.4,42.0,29.77,South,169,3.0,4.0,96,0.00,,,0.18,weatherlink.com 1.10,2013-02-07 05:53:00,
2013-02-06 22:08:00,43.7,43.0,29.78,WSW,246,0.0,3.0,96,0.00,,,0.18,weatherlink.com 1.10,2013-02-07 06:08:00,
2013-02-06 22:23:00,43.4,43.0,29.77,WSW,251,0.0,2.0,97,0.01,,,0.19,weatherlink.com 1.10,2013-02-07 06:23:00,
2013-02-06 22:38:00,43.4,43.0,29.77,WSW,255,1.0,4.0,97,0.01,,,0.19,weatherlink.com 1.10,2013-02-07 06:38:00,
2013-02-06 22:53:00,43.3,43.0,29.77,WSW,249,2.0,2.0,97,0.03,,,0.21,weatherlink.com 1.10,2013-02-07 06:53:00,
2013-02-06 23:08:00,43.2,43.0,29.77,WSW,250,1.0,2.0,98,0.04,,,0.22,weatherlink.com 1.10,2013-02-07 07:08:00,
2013-02-06 23:23:00,43.2,43.0,29.76,WSW,252,0.0,1.0,98,0.03,,,0.22,weatherlink.com 1.10,2013-02-07 07:23:00,
2013-02-06 23:38:00,43.7,43.0,29.76,SSW,195,2.0,6.0,96,0.02,,,0.22,weatherlink.com 1.10,2013-02-07 07:38:00,
2013-02-06 23:53:00,43.8,43.0,29.76,SE,135,1.0,4.0,95,0.02,,,0.23,weatherlink.com 1.10,2013-02-07 07:53:00,